createdAt,value
2022-08-21T00:29:56.898Z,0
2022-08-21T00:30:37.372Z,0
2022-08-21T00:31:17.803Z,0
2022-08-21T00:31:58.301Z,0
2022-08-21T00:32:38.771Z,0
2022-08-21T00:33:19.214Z,0
2022-08-21T00:34:00.731Z,0
2022-08-21T00:34:40.210Z,0
2022-08-21T00:35:20.708Z,0
2022-08-21T00:36:01.191Z,0
2022-08-21T00:43:26.612Z,0
2022-08-21T00:44:07.038Z,0
2022-08-21T00:44:47.535Z,0
2022-08-21T00:45:27.996Z,0
2022-08-21T00:46:08.528Z,0
2022-08-21T00:49:37.508Z,0
2022-08-21T00:50:21.883Z,0
2022-08-21T00:50:58.598Z,0
2022-08-21T00:51:39.076Z,0
2022-08-21T00:52:19.509Z,0
2022-08-21T00:53:00.058Z,0
2022-08-21T00:53:40.514Z,0
2022-08-21T00:54:21.037Z,0
2022-08-21T00:55:01.646Z,0
2022-08-21T00:55:42.108Z,0
2022-08-21T01:02:27.882Z,0
2022-08-21T01:03:08.992Z,0
2022-08-21T01:03:48.877Z,0
2022-08-21T01:04:29.351Z,0
2022-08-21T01:05:09.909Z,0
2022-08-21T01:05:50.399Z,0
2022-08-21T01:06:30.873Z,0
2022-08-21T01:07:11.418Z,0
2022-08-21T01:07:51.888Z,0
2022-08-21T01:08:32.415Z,0
2022-08-21T01:14:53.682Z,0
2022-08-21T01:15:34.491Z,0
2022-08-21T01:16:14.459Z,0
2022-08-21T01:16:54.979Z,0
2022-08-21T01:17:35.439Z,0
2022-08-21T01:18:15.909Z,0
2022-08-21T01:18:56.446Z,0
2022-08-21T01:19:36.877Z,0
2022-08-21T01:20:17.324Z,0
2022-08-21T01:20:57.817Z,0
2022-08-21T01:21:38.313Z,0
2022-08-21T01:22:18.917Z,0
2022-08-21T01:22:59.455Z,0
2022-08-21T01:23:39.767Z,0
2022-08-21T01:24:20.309Z,0
2022-08-21T01:31:06.336Z,0
2022-08-21T01:31:46.516Z,0
2022-08-21T01:32:28.061Z,0
2022-08-21T01:33:09.501Z,0
2022-08-21T01:33:50.830Z,0
2022-08-21T01:39:55.719Z,0
2022-08-21T01:40:36.106Z,0
2022-08-21T01:41:16.601Z,0
2022-08-21T01:41:57.042Z,0
2022-08-21T01:42:37.492Z,0
2022-08-21T01:43:18.023Z,0
2022-08-21T01:43:58.471Z,0
2022-08-21T01:44:38.945Z,0
2022-08-21T01:45:19.407Z,0
2022-08-21T01:45:59.911Z,0
2022-08-21T01:46:40.459Z,0
2022-08-21T01:53:27.982Z,0
2022-08-21T01:54:06.013Z,0
2022-08-21T01:54:46.534Z,0
2022-08-21T01:55:27.071Z,0
2022-08-21T01:56:10.299Z,0
2022-08-21T01:56:47.965Z,0
2022-08-21T01:57:28.443Z,0
2022-08-21T01:58:08.905Z,0
2022-08-21T01:58:49.443Z,0
2022-08-21T01:59:29.940Z,0
2022-08-21T02:00:10.407Z,0
2022-08-21T02:07:35.951Z,0
2022-08-21T02:08:16.425Z,0
2022-08-21T02:08:56.981Z,0
2022-08-21T02:09:37.430Z,0
2022-08-21T02:10:17.932Z,0
2022-08-21T02:10:58.390Z,0
2022-08-21T02:11:38.912Z,0
2022-08-21T02:12:19.354Z,0
2022-08-21T02:13:00.041Z,0
2022-08-21T02:13:40.320Z,0
2022-08-21T02:21:05.652Z,0
2022-08-21T02:21:46.120Z,0
2022-08-21T02:23:07.119Z,0
2022-08-21T02:23:47.550Z,0
2022-08-21T02:24:27.995Z,0
2022-08-21T02:25:08.463Z,0
2022-08-21T02:25:48.993Z,0
2022-08-21T02:26:29.491Z,0
2022-08-21T02:27:09.928Z,0
2022-08-21T02:27:50.498Z,0
2022-08-21T02:35:15.836Z,0
2022-08-21T02:35:56.354Z,0
2022-08-21T02:36:36.777Z,0
2022-08-21T02:37:17.258Z,0
2022-08-21T02:37:57.785Z,0
2022-08-21T02:38:38.263Z,0
2022-08-21T02:39:18.796Z,0
2022-08-21T02:40:39.802Z,0
2022-08-21T02:41:20.315Z,0
2022-08-21T02:42:00.799Z,0
2022-08-21T02:48:45.840Z,0
2022-08-21T02:49:26.276Z,0
2022-08-21T02:50:06.779Z,0
2022-08-21T02:50:47.236Z,0
2022-08-21T02:51:27.728Z,0
2022-08-21T02:52:08.269Z,0
2022-08-21T02:52:48.795Z,0
2022-08-21T02:53:29.277Z,0
2022-08-21T02:54:09.741Z,0
2022-08-21T02:54:50.220Z,0
2022-08-21T02:55:30.714Z,0
2022-08-21T02:58:44.471Z,0
2022-08-21T02:59:25.164Z,0
2022-08-21T03:00:05.489Z,0
2022-08-21T03:00:45.965Z,0
2022-08-21T03:01:26.484Z,0
2022-08-21T03:02:06.961Z,0
2022-08-21T03:02:47.382Z,0
2022-08-21T03:03:27.858Z,0
2022-08-21T03:04:08.334Z,0
2022-08-21T03:04:48.807Z,0
2022-08-21T03:09:55.568Z,0
2022-08-21T03:10:29.234Z,0
2022-08-21T03:11:10.311Z,0
2022-08-21T03:11:50.129Z,0
2022-08-21T03:12:30.617Z,0
2022-08-21T03:13:11.190Z,0
2022-08-21T03:13:51.633Z,0
2022-08-21T03:14:32.126Z,0
2022-08-21T03:15:12.627Z,0
2022-08-21T03:15:53.128Z,0
2022-08-21T03:23:18.386Z,0
2022-08-21T03:23:58.774Z,0
2022-08-21T03:24:39.256Z,0
2022-08-21T03:25:19.735Z,0
2022-08-21T03:26:00.139Z,0
2022-08-21T03:26:40.640Z,0
2022-08-21T03:27:21.146Z,0
2022-08-21T03:28:01.610Z,0
2022-08-21T03:28:42.103Z,0
2022-08-21T03:29:22.551Z,0
2022-08-21T03:30:43.527Z,0
2022-08-21T03:38:08.673Z,0
2022-08-21T03:38:49.059Z,0
2022-08-21T03:39:29.585Z,0
2022-08-21T03:40:10.132Z,0
2022-08-21T03:40:50.516Z,0
2022-08-21T03:41:30.935Z,0
2022-08-21T03:42:11.489Z,0
2022-08-21T03:42:51.894Z,0
2022-08-21T03:43:32.466Z,0
2022-08-21T03:44:12.894Z,0
2022-08-21T03:44:53.321Z,0
2022-08-21T03:50:28.281Z,0
2022-08-21T03:51:08.824Z,0
2022-08-21T03:51:49.297Z,0
2022-08-21T03:52:29.853Z,0
2022-08-21T03:53:15.703Z,0
2022-08-21T03:53:50.828Z,0
2022-08-21T03:54:31.296Z,0
2022-08-21T03:55:11.820Z,0
2022-08-21T03:55:52.299Z,0
2022-08-21T03:56:32.771Z,0
2022-08-21T03:57:13.272Z,0
2022-08-21T04:03:58.115Z,4
2022-08-21T04:04:38.572Z,4
2022-08-21T04:05:19.075Z,4
2022-08-21T04:05:59.526Z,4
2022-08-21T04:06:40.042Z,4
2022-08-21T04:07:20.521Z,4
2022-08-21T04:08:01.040Z,8
2022-08-21T04:08:41.462Z,4
2022-08-21T04:09:21.977Z,8
2022-08-21T04:10:42.999Z,12
2022-08-21T04:11:23.428Z,12
2022-08-21T04:18:25.379Z,28
2022-08-21T04:19:05.889Z,28
2022-08-21T04:19:48.431Z,32
2022-08-21T04:20:26.822Z,36
2022-08-21T04:21:07.256Z,36
2022-08-21T04:21:47.757Z,36
2022-08-21T04:22:28.234Z,44
2022-08-21T04:23:08.672Z,48
2022-08-21T04:23:49.133Z,52
2022-08-21T04:24:29.971Z,52
2022-08-21T04:31:15.093Z,100
2022-08-21T04:31:55.593Z,104
2022-08-21T04:32:36.102Z,112
2022-08-21T04:33:16.548Z,120
2022-08-21T04:33:57.017Z,124
2022-08-21T04:34:37.546Z,132
2022-08-21T04:35:17.983Z,140
2022-08-21T04:35:58.529Z,148
2022-08-21T04:39:13.521Z,192
2022-08-21T04:39:53.885Z,204
2022-08-21T04:40:34.297Z,212
2022-08-21T04:41:14.744Z,224
2022-08-21T04:41:55.221Z,236
2022-08-21T04:42:35.715Z,248
2022-08-21T04:43:16.166Z,260
2022-08-21T04:43:56.626Z,276
2022-08-21T04:44:37.179Z,288
2022-08-21T04:47:05.746Z,348
2022-08-21T04:47:52.072Z,368
2022-08-21T04:48:26.649Z,388
2022-08-21T04:49:07.125Z,404
2022-08-21T04:49:47.638Z,428
2022-08-21T04:51:08.561Z,472
2022-08-21T04:51:49.036Z,500
2022-08-21T04:52:29.514Z,528
2022-08-21T05:00:35.182Z,1208
2022-08-21T05:01:15.739Z,1312
2022-08-21T05:01:56.201Z,1356
2022-08-21T05:02:36.577Z,1504
2022-08-21T05:03:17.095Z,1536
2022-08-21T05:03:57.509Z,1616
2022-08-21T05:04:37.999Z,1668
2022-08-21T05:05:18.459Z,1704
2022-08-21T05:05:58.957Z,1808
2022-08-21T05:06:39.416Z,1868
2022-08-21T05:07:41.836Z,1896
2022-08-21T05:14:45.163Z,3428
2022-08-21T05:15:25.655Z,3536
2022-08-21T05:16:06.128Z,3616
2022-08-21T05:16:46.565Z,4020
2022-08-21T05:17:26.998Z,4144
2022-08-21T05:18:07.493Z,4396
2022-08-21T05:18:47.980Z,4732
2022-08-21T05:19:28.461Z,4876
2022-08-21T05:20:08.938Z,5056
2022-08-21T05:20:49.438Z,5400
2022-08-21T05:21:29.926Z,5676
2022-08-21T05:28:54.952Z,9412
2022-08-21T05:29:35.478Z,9348
2022-08-21T05:30:15.885Z,10260
2022-08-21T05:30:56.409Z,10240
2022-08-21T05:31:36.876Z,10244
2022-08-21T05:32:17.401Z,10144
2022-08-21T05:32:58.075Z,10568
2022-08-21T05:33:38.283Z,11012
2022-08-21T05:34:18.764Z,11156
2022-08-21T05:34:59.300Z,11352
2022-08-21T05:35:39.795Z,11552
2022-08-21T05:43:05.031Z,14496
2022-08-21T05:43:45.597Z,14144
2022-08-21T05:44:25.988Z,14720
2022-08-21T05:45:06.517Z,15232
2022-08-21T05:46:27.432Z,16288
2022-08-21T05:47:07.925Z,15904
2022-08-21T05:47:48.431Z,16384
2022-08-21T05:48:28.872Z,16640
2022-08-21T05:49:09.367Z,16576
2022-08-21T05:49:49.854Z,17056
2022-08-21T06:32:13.012Z,34144
2022-08-21T06:32:53.276Z,34080
2022-08-21T06:33:33.837Z,35008
2022-08-21T06:34:14.476Z,34208
2022-08-21T06:34:55.129Z,33728
2022-08-21T06:35:35.662Z,33024
2022-08-21T06:36:16.134Z,31904
2022-08-21T06:36:56.762Z,30432
2022-08-21T06:37:37.193Z,29280
2022-08-21T06:38:17.681Z,26976
2022-08-21T06:42:37.900Z,21344
2022-08-21T06:43:18.217Z,20800
2022-08-21T06:43:58.714Z,20736
2022-08-21T06:44:39.201Z,20960
2022-08-21T06:45:19.643Z,20800
2022-08-21T06:46:00.123Z,20672
2022-08-21T06:46:40.664Z,20832
2022-08-21T06:47:21.169Z,20672
2022-08-21T06:48:01.706Z,20416
2022-08-21T06:48:42.116Z,19872
2022-08-21T06:55:29.156Z,18688
2022-08-21T06:56:07.769Z,18496
2022-08-21T06:56:48.196Z,17856
2022-08-21T06:57:28.693Z,16928
2022-08-21T06:58:09.231Z,16512
2022-08-21T06:58:49.720Z,16992
2022-08-21T06:59:30.206Z,17088
2022-08-21T07:00:10.747Z,16992
2022-08-21T07:00:51.240Z,16768
2022-08-21T07:01:31.917Z,16032
2022-08-21T07:02:12.302Z,15104
2022-08-21T07:08:17.339Z,13860
2022-08-21T07:08:58.831Z,13704
2022-08-21T07:09:38.372Z,13788
2022-08-21T07:10:22.089Z,14260
2022-08-21T07:11:44.127Z,13664
2022-08-21T07:12:20.368Z,13260
2022-08-21T07:13:01.695Z,12832
2022-08-21T07:13:41.380Z,12424
2022-08-21T07:14:21.915Z,12032
2022-08-21T07:15:02.395Z,11584
2022-08-21T07:21:47.461Z,10296
2022-08-21T07:22:28.012Z,10248
2022-08-21T07:23:08.473Z,10300
2022-08-21T07:23:49.010Z,9788
2022-08-21T07:24:29.553Z,8840
2022-08-21T07:25:10.027Z,7720
2022-08-21T07:25:50.467Z,6992
2022-08-21T07:26:30.992Z,6536
2022-08-21T07:27:11.476Z,6260
2022-08-21T07:27:51.932Z,6084
2022-08-21T07:34:37.182Z,4728
2022-08-21T07:35:17.671Z,4748
2022-08-21T07:35:58.181Z,4708
2022-08-21T07:36:38.663Z,4560
2022-08-21T07:37:19.134Z,4048
2022-08-21T07:40:32.904Z,4064
2022-08-21T07:41:13.438Z,3972
2022-08-21T07:41:53.875Z,3872
2022-08-21T07:42:34.362Z,3792
2022-08-21T07:43:14.839Z,3772
2022-08-21T07:43:55.383Z,3680
2022-08-21T07:44:35.881Z,3664
2022-08-21T07:45:16.334Z,3628
2022-08-21T07:45:56.931Z,3608
2022-08-21T07:46:37.415Z,3540
2022-08-21T07:47:17.902Z,3388
2022-08-21T07:54:02.893Z,3128
2022-08-21T07:54:43.396Z,3108
2022-08-21T07:55:23.907Z,3100
2022-08-21T07:56:04.378Z,3060
2022-08-21T07:56:44.879Z,3012
2022-08-21T07:57:25.380Z,2968
2022-08-21T07:58:05.839Z,2936
2022-08-21T07:58:46.349Z,2896
2022-08-21T07:59:26.850Z,2848
2022-08-21T08:00:07.351Z,2812
2022-08-21T08:00:47.852Z,2772
2022-08-21T08:06:12.669Z,2392
2022-08-21T08:06:53.153Z,2388
2022-08-21T08:07:33.639Z,2392
2022-08-21T08:08:14.107Z,2400
2022-08-21T08:08:54.625Z,2380
2022-08-21T08:09:35.160Z,2372
2022-08-21T08:10:15.656Z,2360
2022-08-21T08:10:56.151Z,2336
2022-08-21T08:11:36.663Z,2324
2022-08-21T08:12:17.116Z,2308
2022-08-21T08:12:57.859Z,2296
2022-08-21T08:20:23.077Z,2108
2022-08-21T08:21:03.595Z,2092
2022-08-21T08:21:44.139Z,2076
2022-08-21T08:22:24.610Z,2076
2022-08-21T08:23:05.092Z,2068
2022-08-21T08:23:45.655Z,2060
2022-08-21T08:24:26.081Z,2052
2022-08-21T08:25:09.395Z,2044
2022-08-21T08:25:47.105Z,2032
2022-08-21T08:33:12.691Z,1924
2022-08-21T08:33:53.156Z,1924
2022-08-21T08:34:33.677Z,1928
2022-08-21T08:35:14.193Z,1928
2022-08-21T08:35:54.651Z,1920
2022-08-21T08:36:35.159Z,1920
2022-08-21T08:37:15.727Z,1928
2022-08-21T08:37:56.191Z,1936
2022-08-21T08:38:36.803Z,1944
2022-08-21T08:39:26.353Z,1948
2022-08-21T08:39:57.852Z,1952
2022-08-21T08:46:42.803Z,1860
2022-08-21T08:49:10.773Z,1856
2022-08-21T08:49:51.258Z,1824
2022-08-21T08:50:31.777Z,1808
2022-08-21T08:51:12.246Z,1844
2022-08-21T08:51:53.064Z,1840
2022-08-21T08:52:33.264Z,1860
2022-08-21T08:53:13.750Z,1864
2022-08-21T08:53:54.295Z,1864
2022-08-21T08:54:34.789Z,1868
2022-08-21T08:55:15.351Z,1872
2022-08-21T08:55:55.776Z,1868
2022-08-21T09:02:40.750Z,1664
2022-08-21T09:03:21.215Z,1748
2022-08-21T09:04:01.709Z,1756
2022-08-21T09:04:42.248Z,1772
2022-08-21T09:05:22.818Z,1760
2022-08-21T09:06:03.297Z,1712
2022-08-21T09:06:43.824Z,1696
2022-08-21T09:07:24.330Z,1712
2022-08-21T09:08:04.882Z,1708
2022-08-21T09:08:45.360Z,1680
2022-08-21T09:09:25.860Z,1692
2022-08-21T09:16:10.745Z,1676
2022-08-21T09:16:51.281Z,1668
2022-08-21T09:17:31.751Z,1664
2022-08-21T09:18:12.247Z,1652
2022-08-21T09:18:52.775Z,1636
2022-08-21T09:19:33.238Z,1620
2022-08-21T09:20:13.764Z,1624
2022-08-21T09:20:54.296Z,1572
2022-08-21T09:21:34.890Z,1532
2022-08-21T09:22:15.346Z,1496
2022-08-21T09:22:55.865Z,1456
2022-08-21T09:29:40.833Z,1484
2022-08-21T09:30:21.335Z,1516
2022-08-21T09:31:01.803Z,1544
2022-08-21T09:31:42.298Z,1580
2022-08-21T09:32:22.825Z,1568
2022-08-21T09:33:03.306Z,1592
2022-08-21T09:33:44.742Z,1604
2022-08-21T09:34:25.257Z,1552
2022-08-21T09:35:05.732Z,1620
2022-08-21T09:41:50.836Z,1568
2022-08-21T09:42:31.294Z,1560
2022-08-21T09:43:11.798Z,1552
2022-08-21T09:43:52.278Z,1540
2022-08-21T09:44:32.780Z,1532
2022-08-21T09:45:13.294Z,1516
2022-08-21T09:45:53.849Z,1468
2022-08-21T09:46:34.306Z,1452
2022-08-21T09:47:14.805Z,1364
2022-08-21T09:47:55.448Z,1288
2022-08-21T09:48:35.814Z,1368
2022-08-21T09:56:18.873Z,1312
2022-08-21T09:56:59.297Z,1420
2022-08-21T09:57:42.882Z,1540
2022-08-21T09:58:20.452Z,1608
2022-08-21T09:59:00.927Z,1608
2022-08-21T09:59:41.444Z,1616
2022-08-21T10:00:21.935Z,1612
2022-08-21T10:01:02.522Z,1604
2022-08-21T10:01:42.973Z,1596
2022-08-21T10:02:23.446Z,1584
2022-08-21T10:09:09.389Z,1488
2022-08-21T10:09:49.104Z,1476
2022-08-21T10:10:29.620Z,1460
2022-08-21T10:11:10.116Z,1452
2022-08-21T10:11:50.597Z,1448
2022-08-21T10:12:31.088Z,1436
2022-08-21T10:13:11.592Z,1420
2022-08-21T10:13:52.099Z,1408
2022-08-21T10:14:32.614Z,1400
2022-08-21T10:15:13.149Z,1400
2022-08-21T10:22:38.605Z,1332
2022-08-21T10:23:19.179Z,1324
2022-08-21T10:24:40.187Z,1348
2022-08-21T10:25:20.676Z,1344
2022-08-21T10:26:13.714Z,1320
2022-08-21T10:27:22.217Z,1312
2022-08-21T10:28:02.739Z,1300
2022-08-21T10:28:43.236Z,1292
2022-08-21T10:29:23.743Z,1276
2022-08-21T10:36:09.020Z,1260
2022-08-21T10:36:49.544Z,1268
2022-08-21T10:37:30.046Z,1264
2022-08-21T10:38:10.556Z,1284
2022-08-21T10:39:07.307Z,1304
2022-08-21T10:39:35.376Z,1332
2022-08-21T10:40:52.969Z,1348
2022-08-21T10:41:33.420Z,1364
2022-08-21T10:46:59.634Z,1432
2022-08-21T10:47:39.389Z,1440
2022-08-21T10:48:19.976Z,1452
2022-08-21T10:49:00.580Z,1432
2022-08-21T10:49:40.953Z,1392
2022-08-21T10:50:21.376Z,1464
2022-08-21T10:51:01.854Z,1456
2022-08-21T10:51:42.396Z,1460
2022-08-21T10:52:22.847Z,1460
2022-08-21T10:53:03.376Z,1476
2022-08-21T10:59:48.576Z,1396
2022-08-21T11:00:29.069Z,1452
2022-08-21T11:01:09.539Z,1512
2022-08-21T11:01:50.060Z,1484
2022-08-21T11:02:30.601Z,1480
2022-08-21T11:03:11.031Z,1488
2022-08-21T11:03:51.506Z,1456
2022-08-21T11:05:12.530Z,1380
2022-08-21T11:05:53.014Z,1408
2022-08-21T11:06:33.476Z,1444
2022-08-21T11:13:58.922Z,1568
2022-08-21T11:14:39.408Z,1576
2022-08-21T11:15:28.826Z,1572
2022-08-21T11:16:00.476Z,1572
2022-08-21T11:16:40.953Z,1544
2022-08-21T11:17:22.067Z,1520
2022-08-21T11:18:01.941Z,1448
2022-08-21T11:18:42.439Z,1480
2022-08-21T11:19:22.959Z,1532
2022-08-21T11:20:03.481Z,1496
2022-08-21T11:27:26.251Z,1564
2022-08-21T11:28:08.799Z,1576
2022-08-21T11:28:47.025Z,1596
2022-08-21T11:29:27.986Z,1592
2022-08-21T11:30:08.499Z,1584
2022-08-21T11:30:48.953Z,1584
2022-08-21T11:31:29.462Z,1580
2022-08-21T11:32:09.941Z,1588
2022-08-21T11:32:50.491Z,1600
2022-08-21T11:35:28.659Z,1600
2022-08-21T11:36:09.703Z,1596
2022-08-21T11:36:49.838Z,1596
2022-08-21T11:37:30.341Z,1596
2022-08-21T11:38:10.818Z,1592
2022-08-21T11:38:51.293Z,1592
2022-08-21T11:39:31.829Z,1588
2022-08-21T11:40:12.367Z,1584
2022-08-21T11:40:52.779Z,1580
2022-08-21T11:41:33.328Z,1584
2022-08-21T11:47:38.745Z,1576
2022-08-21T11:48:19.269Z,1556
2022-08-21T11:48:59.815Z,1536
2022-08-21T11:49:40.293Z,1520
2022-08-21T11:50:32.248Z,1512
2022-08-21T11:51:01.264Z,1496
2022-08-21T11:51:41.853Z,1492
2022-08-21T11:52:22.398Z,1480
2022-08-21T11:53:03.255Z,1480
2022-08-21T11:53:43.782Z,1468
2022-08-21T12:32:39.847Z,1444
2022-08-21T12:33:20.382Z,1112
2022-08-21T12:34:00.848Z,1432
2022-08-21T12:34:41.335Z,1404
2022-08-21T12:35:23.197Z,1404
2022-08-21T12:36:02.354Z,1400
2022-08-21T12:36:42.855Z,1368
2022-08-21T12:37:23.338Z,1336
2022-08-21T12:38:03.826Z,1424
2022-08-21T12:38:44.290Z,1436
2022-08-21T12:46:09.890Z,1400
2022-08-21T12:48:25.071Z,1352
2022-08-21T12:49:03.460Z,1340
2022-08-21T12:49:43.743Z,1376
2022-08-21T12:50:24.215Z,1260
2022-08-21T12:51:04.729Z,1368
2022-08-21T12:53:25.196Z,1308
2022-08-21T12:55:52.784Z,1308
2022-08-21T12:56:33.283Z,1296
2022-08-21T12:57:13.795Z,1276
2022-08-21T12:57:54.270Z,1272
2022-08-21T12:58:34.777Z,1256
2022-08-21T12:59:15.302Z,1260
2022-08-21T12:59:55.806Z,1264
2022-08-21T13:00:36.260Z,1252
2022-08-21T13:01:16.821Z,1252
2022-08-21T13:01:57.321Z,1248
2022-08-21T13:02:37.802Z,1232
2022-08-21T13:08:45.557Z,1332
2022-08-21T13:09:22.990Z,1356
2022-08-21T13:10:04.192Z,1388
2022-08-21T13:10:44.727Z,1404
2022-08-21T13:11:32.814Z,1392
2022-08-21T13:12:05.638Z,1384
2022-08-21T13:12:46.197Z,1372
2022-08-21T13:13:28.114Z,1320
2022-08-21T13:14:07.103Z,1276
2022-08-21T13:14:47.629Z,1232
2022-08-21T13:20:52.573Z,1224
2022-08-21T13:21:33.076Z,1196
2022-08-21T13:22:15.944Z,1208
2022-08-21T13:22:54.042Z,1208
2022-08-21T13:23:34.559Z,1192
2022-08-21T13:24:39.036Z,1208
2022-08-21T13:24:55.710Z,1216
2022-08-21T13:25:36.323Z,1208
2022-08-21T13:26:18.669Z,1200
2022-08-21T13:26:57.335Z,1184
2022-08-21T13:27:37.840Z,1196
2022-08-21T13:33:02.672Z,1184
2022-08-21T13:34:22.902Z,1164
2022-08-21T13:35:03.378Z,1156
2022-08-21T13:35:43.907Z,1148
2022-08-21T13:36:24.386Z,1128
2022-08-21T13:37:04.884Z,1108
2022-08-21T13:37:45.367Z,1104
2022-08-21T13:38:27.021Z,1076
2022-08-21T13:39:06.542Z,1000
2022-08-21T13:39:47.134Z,1060
2022-08-21T13:40:27.547Z,1080
2022-08-21T13:46:32.489Z,1372
2022-08-21T13:47:12.999Z,1332
2022-08-21T13:47:53.521Z,1388
2022-08-21T13:48:33.997Z,1348
2022-08-21T13:49:14.519Z,1416
2022-08-21T13:49:59.048Z,1376
2022-08-21T13:50:35.455Z,1308
2022-08-21T13:51:15.993Z,1336
2022-08-21T13:51:56.484Z,1320
2022-08-21T13:52:36.994Z,1304
2022-08-21T13:53:17.500Z,1400
2022-08-21T14:00:03.286Z,1260
2022-08-21T14:00:43.820Z,1236
2022-08-21T14:01:24.329Z,1208
2022-08-21T14:02:04.838Z,1176
2022-08-21T14:02:47.161Z,1180
2022-08-21T14:03:27.745Z,1116
2022-08-21T14:10:12.579Z,924
2022-08-21T14:10:53.885Z,860
2022-08-21T14:11:33.547Z,844
2022-08-21T14:12:18.038Z,832
2022-08-21T14:13:34.949Z,828
2022-08-21T14:14:15.450Z,792
2022-08-21T14:14:55.983Z,804
2022-08-21T14:15:36.408Z,808
2022-08-21T14:16:16.908Z,832
2022-08-21T14:16:57.384Z,804
2022-08-21T14:23:42.608Z,804
2022-08-21T14:24:23.109Z,796
2022-08-21T14:25:03.576Z,792
2022-08-21T14:25:44.270Z,792
2022-08-21T14:26:24.573Z,780
2022-08-21T14:27:05.072Z,784
2022-08-21T14:27:45.554Z,796
2022-08-21T14:28:26.618Z,800
2022-08-21T14:29:09.456Z,808
2022-08-21T14:29:47.117Z,808
2022-08-21T14:30:27.558Z,824
2022-08-21T14:37:12.515Z,888
2022-08-21T14:37:53.031Z,884
2022-08-21T14:39:14.422Z,880
2022-08-21T14:39:55.033Z,884
2022-08-21T14:40:35.457Z,896
2022-08-21T14:41:16.028Z,908
2022-08-21T14:41:56.501Z,924
2022-08-21T14:42:36.993Z,944
2022-08-21T14:43:17.505Z,952
2022-08-21T14:50:02.908Z,1056
2022-08-21T14:50:43.440Z,1068
2022-08-21T14:51:24.638Z,1084
2022-08-21T14:52:05.178Z,1088
2022-08-21T14:52:45.970Z,1092
2022-08-21T14:53:26.428Z,1104
2022-08-21T14:54:06.917Z,1108
2022-08-21T14:54:47.410Z,1116
2022-08-21T15:00:12.712Z,1200
2022-08-21T15:00:53.188Z,1216
2022-08-21T15:01:33.701Z,1224
2022-08-21T15:02:14.163Z,1232
2022-08-21T15:02:54.730Z,1240
2022-08-21T15:03:35.117Z,1256
2022-08-21T15:04:15.595Z,1260
2022-08-21T15:04:56.104Z,1284
2022-08-21T15:05:36.610Z,1340
2022-08-21T15:06:17.093Z,1376
2022-08-21T15:06:57.564Z,1340
2022-08-21T15:13:42.658Z,1380
2022-08-21T15:14:23.161Z,1408
2022-08-21T15:15:03.665Z,1432
2022-08-21T15:15:46.353Z,1436
2022-08-21T15:16:26.929Z,1452
2022-08-21T15:17:07.659Z,1444
2022-08-21T15:21:12.510Z,1364
2022-08-21T15:21:53.283Z,1368
2022-08-21T15:22:33.683Z,1360
2022-08-21T15:23:15.012Z,1340
2022-08-21T15:23:54.683Z,1364
2022-08-21T15:24:35.175Z,1376
2022-08-21T15:25:15.646Z,1380
2022-08-21T15:25:56.118Z,1400
2022-08-21T15:26:36.590Z,1368
2022-08-21T15:27:17.038Z,1308
2022-08-21T15:27:57.521Z,1284
2022-08-21T15:34:42.524Z,1144
2022-08-21T15:35:23.031Z,1136
2022-08-21T15:36:03.527Z,1132
2022-08-21T15:36:44.013Z,1132
2022-08-21T15:37:24.477Z,1132
2022-08-21T15:38:05.027Z,1128
2022-08-21T15:38:45.523Z,1128
2022-08-21T15:39:30.272Z,1132
2022-08-21T15:40:06.533Z,1128
2022-08-21T15:40:52.210Z,1120
2022-08-21T15:41:27.422Z,1120
2022-08-21T15:47:32.546Z,1188
2022-08-21T15:48:13.017Z,1188
2022-08-21T15:48:57.809Z,1188
2022-08-21T15:49:33.984Z,1192
2022-08-21T15:50:14.721Z,1192
2022-08-21T15:50:55.226Z,1196
2022-08-21T15:51:35.727Z,1212
2022-08-21T15:52:16.272Z,1228
2022-08-21T15:52:56.739Z,1216
2022-08-21T15:53:37.341Z,1208
2022-08-21T15:59:03.557Z,1272
2022-08-21T15:59:44.210Z,1284
2022-08-21T16:00:24.706Z,1296
2022-08-21T16:01:05.228Z,1280
2022-08-21T16:01:45.825Z,1264
2022-08-21T16:02:26.324Z,1248
2022-08-21T16:03:07.764Z,1236
2022-08-21T16:03:48.196Z,1204
2022-08-21T16:06:37.458Z,1100
2022-08-21T16:07:16.065Z,1080
2022-08-21T16:07:56.814Z,1068
2022-08-21T16:10:43.184Z,1124
2022-08-21T16:11:23.770Z,1128
2022-08-21T16:12:04.707Z,1124
2022-08-21T16:12:45.240Z,1120
2022-08-21T16:13:27.884Z,1116
2022-08-21T16:14:52.594Z,1088
2022-08-21T16:15:36.157Z,1088
2022-08-21T16:16:16.977Z,1092
2022-08-21T16:16:58.601Z,1088
2022-08-21T16:22:22.804Z,956
2022-08-21T16:23:03.294Z,948
2022-08-21T16:23:43.807Z,932
2022-08-21T16:24:24.246Z,924
2022-08-21T16:25:04.708Z,912
2022-08-21T16:25:45.203Z,904
2022-08-21T16:26:25.728Z,896
2022-08-21T16:27:08.179Z,888
2022-08-21T16:27:46.710Z,884
2022-08-21T16:28:27.213Z,876
2022-08-21T16:29:08.215Z,868
2022-08-21T16:34:32.487Z,812
2022-08-21T16:35:13.019Z,804
2022-08-21T16:36:36.989Z,796
2022-08-21T16:37:21.914Z,796
2022-08-21T16:43:22.645Z,780
2022-08-21T16:44:03.107Z,776
2022-08-21T16:44:48.511Z,772
2022-08-21T16:45:24.150Z,768
2022-08-21T16:46:04.653Z,764
2022-08-21T16:46:45.164Z,756
2022-08-21T16:47:26.592Z,756
2022-08-21T16:48:06.707Z,752
2022-08-21T16:48:47.272Z,748
2022-08-21T16:55:32.583Z,696
2022-08-21T16:56:13.111Z,692
2022-08-21T16:56:54.165Z,688
2022-08-21T16:57:34.325Z,688
2022-08-21T16:58:14.859Z,684
2022-08-21T16:58:55.375Z,684
2022-08-21T16:59:35.830Z,684
2022-08-21T17:00:16.370Z,680
2022-08-21T17:00:56.909Z,672
2022-08-21T17:01:37.938Z,668
2022-08-21T17:07:42.557Z,624
2022-08-21T17:08:23.805Z,620
2022-08-21T17:09:03.771Z,620
2022-08-21T17:09:44.610Z,616
2022-08-21T17:10:25.418Z,612
2022-08-21T17:11:05.876Z,612
2022-08-21T17:11:46.543Z,608
2022-08-21T17:12:26.848Z,604
2022-08-21T17:13:09.608Z,600
2022-08-21T17:13:47.848Z,596
2022-08-21T17:17:53.113Z,564
2022-08-21T17:18:33.547Z,560
2022-08-21T17:19:14.378Z,556
2022-08-21T17:19:55.022Z,548
2022-08-21T17:20:35.608Z,540
2022-08-21T17:21:18.628Z,532
2022-08-21T17:21:56.583Z,524
2022-08-21T17:22:37.080Z,516
2022-08-21T17:23:17.554Z,508
2022-08-21T17:28:42.549Z,432
2022-08-21T17:29:22.932Z,420
2022-08-21T17:30:03.545Z,416
2022-08-21T17:30:44.178Z,404
2022-08-21T17:31:24.661Z,396
2022-08-21T17:32:05.273Z,388
2022-08-21T17:32:46.031Z,380
2022-08-21T17:33:26.504Z,372
2022-08-21T17:34:07.063Z,364
2022-08-21T17:34:47.622Z,360
2022-08-21T17:40:12.930Z,296
2022-08-21T17:40:52.634Z,292
2022-08-21T17:41:33.180Z,288
2022-08-21T17:42:13.626Z,280
2022-08-21T17:42:54.218Z,276
2022-08-21T17:43:34.694Z,268
2022-08-21T17:44:18.437Z,264
2022-08-21T17:44:55.817Z,256
2022-08-21T17:45:37.140Z,248
2022-08-21T17:46:16.746Z,244
2022-08-21T17:46:57.188Z,244
2022-08-21T17:47:37.663Z,236
2022-08-21T18:34:50.344Z,32
2022-08-21T18:35:32.517Z,28
2022-08-21T18:36:11.292Z,28
2022-08-21T18:36:51.600Z,28
2022-08-21T18:37:32.230Z,24
2022-08-21T18:38:12.804Z,24
2022-08-21T18:38:53.220Z,24
2022-08-21T18:39:37.690Z,20
2022-08-21T18:40:14.222Z,24
2022-08-21T18:40:56.033Z,20
2022-08-21T18:41:35.158Z,20
2022-08-21T18:48:20.337Z,8
2022-08-21T18:49:00.871Z,8
2022-08-21T18:49:41.614Z,8
2022-08-21T18:50:21.919Z,8
2022-08-21T18:51:45.364Z,8
2022-08-21T18:52:23.382Z,8
2022-08-21T18:53:07.425Z,4
2022-08-21T18:53:45.122Z,4
2022-08-21T18:59:09.949Z,4
2022-08-21T18:59:50.192Z,0
2022-08-21T19:00:30.645Z,0
2022-08-21T19:01:11.127Z,0
2022-08-21T19:04:43.508Z,0
2022-08-21T19:05:06.193Z,0
2022-08-21T19:05:46.655Z,0
2022-08-21T19:06:27.144Z,0
2022-08-21T19:07:07.646Z,0
2022-08-21T19:07:48.087Z,0
2022-08-21T19:08:28.659Z,0
2022-08-21T19:09:09.330Z,0
2022-08-21T19:10:07.871Z,0
2022-08-21T19:10:30.466Z,0
2022-08-21T19:17:15.670Z,0
2022-08-21T19:17:56.263Z,0
2022-08-21T19:18:36.895Z,0
2022-08-21T19:19:17.308Z,0
2022-08-21T19:19:57.804Z,0
2022-08-21T19:20:39.011Z,0
2022-08-21T19:24:17.487Z,0
2022-08-21T19:24:49.755Z,0
2022-08-21T19:25:33.103Z,0
2022-08-21T19:26:08.549Z,0
2022-08-21T19:26:49.401Z,0
2022-08-21T19:27:30.024Z,0
2022-08-21T19:28:10.697Z,0